createdAt,value
2017-11-04T00:01:03.090Z,100939
2017-11-04T00:03:29.284Z,100938
2017-11-04T00:05:55.464Z,100938
2017-11-04T00:08:21.641Z,100937
2017-11-04T00:10:48.083Z,100939
2017-11-04T00:13:14.240Z,100936
2017-11-04T00:15:41.140Z,100936
2017-11-04T00:18:07.299Z,100933
2017-11-04T00:20:33.516Z,100933
2017-11-04T00:22:59.673Z,100932
2017-11-04T00:25:25.878Z,100930
2017-11-04T00:27:52.180Z,100932
2017-11-04T00:30:18.361Z,100932
2017-11-04T00:32:44.532Z,100929
2017-11-04T00:35:10.734Z,100927
2017-11-04T00:37:36.922Z,100929
2017-11-04T00:40:03.137Z,100931
2017-11-04T00:42:29.584Z,100926
2017-11-04T00:44:55.749Z,100921
2017-11-04T00:47:21.948Z,100919
2017-11-04T00:49:48.148Z,100918
2017-11-04T00:52:14.321Z,100916
2017-11-04T00:54:40.508Z,100912
2017-11-04T00:57:06.684Z,100911
2017-11-04T00:59:33.595Z,100908
2017-11-04T01:01:59.801Z,100903
2017-11-04T01:04:25.962Z,100902
2017-11-04T01:06:52.135Z,100901
2017-11-04T01:09:18.346Z,100899
2017-11-04T01:11:45.252Z,100891
2017-11-04T01:14:11.423Z,100889
2017-11-04T01:16:38.359Z,100890
2017-11-04T01:19:05.263Z,100892
2017-11-04T01:21:31.416Z,100889
2017-11-04T01:23:57.610Z,100882
2017-11-04T01:26:23.772Z,100889
2017-11-04T01:28:50.684Z,100890
2017-11-04T01:31:17.115Z,100889
2017-11-04T01:33:46.225Z,100894
2017-11-04T01:36:12.425Z,100891
2017-11-04T01:38:38.648Z,100885
2017-11-04T01:41:04.823Z,100883
2017-11-04T01:43:31.747Z,100884
2017-11-04T01:45:57.943Z,100877
2017-11-04T01:48:24.093Z,100879
2017-11-04T01:50:51.048Z,100880
2017-11-04T01:53:17.009Z,100879
2017-11-04T01:55:43.934Z,100875
2017-11-04T01:58:10.137Z,100874
2017-11-04T02:00:36.303Z,100876
2017-11-04T02:03:03.214Z,100866
2017-11-04T02:05:29.504Z,100867
2017-11-04T02:07:55.726Z,100863
2017-11-04T02:10:21.895Z,100866
2017-11-04T02:12:48.490Z,100859
2017-11-04T02:15:14.685Z,100857
2017-11-04T02:17:41.619Z,100853
2017-11-04T02:20:07.831Z,100856
2017-11-04T02:22:34.661Z,100847
2017-11-04T02:25:00.853Z,100848
2017-11-04T02:27:27.072Z,100843
2017-11-04T02:29:53.284Z,100849
2017-11-04T02:32:20.192Z,100844
2017-11-04T02:34:46.425Z,100844
2017-11-04T02:37:12.591Z,100844
2017-11-04T02:39:38.793Z,100847
2017-11-04T02:42:05.002Z,100838
2017-11-04T02:44:31.177Z,100836
2017-11-04T02:46:57.356Z,100830
2017-11-04T02:49:23.555Z,100822
2017-11-04T02:51:49.741Z,100827
2017-11-04T02:54:16.676Z,100825
2017-11-04T02:56:42.869Z,100827
2017-11-04T02:59:09.070Z,100822
2017-11-04T03:01:35.600Z,100820
2017-11-04T03:04:01.773Z,100817
2017-11-04T03:06:27.948Z,100818
2017-11-04T03:08:54.137Z,100822
2017-11-04T03:11:20.314Z,100818
2017-11-04T03:13:46.495Z,100814
2017-11-04T03:16:12.718Z,100817
2017-11-04T03:18:38.923Z,100812
2017-11-04T03:21:05.117Z,100804
2017-11-04T03:23:31.347Z,100799
2017-11-04T03:25:57.522Z,100797
2017-11-04T03:28:23.713Z,100793
2017-11-04T03:30:49.995Z,100789
2017-11-04T03:33:16.193Z,100793
2017-11-04T03:35:42.408Z,100790
2017-11-04T03:38:08.610Z,100792
2017-11-04T03:40:34.813Z,100790
2017-11-04T03:43:01.749Z,100793
2017-11-04T03:45:27.939Z,100792
2017-11-04T03:47:54.127Z,100786
2017-11-04T03:50:20.332Z,100784
2017-11-04T03:52:46.512Z,100783
2017-11-04T03:55:12.684Z,100778
2017-11-04T03:57:39.054Z,100777
2017-11-04T04:00:05.312Z,100775
2017-11-04T04:02:31.506Z,100776
2017-11-04T04:04:58.505Z,100774
2017-11-04T04:07:24.667Z,100771
2017-11-04T04:09:50.858Z,100774
2017-11-04T04:12:17.237Z,100775
2017-11-04T04:14:43.433Z,100772
2017-11-04T04:17:10.360Z,100773
2017-11-04T04:19:36.940Z,100771
2017-11-04T04:22:03.126Z,100763
2017-11-04T04:24:29.322Z,100762
2017-11-04T04:26:55.665Z,100760
2017-11-04T04:29:21.979Z,100758
2017-11-04T04:31:48.157Z,100762
2017-11-04T04:34:15.096Z,100760
2017-11-04T04:36:41.294Z,100750
2017-11-04T04:39:07.520Z,100749
2017-11-04T04:41:33.769Z,100749
2017-11-04T04:43:59.981Z,100743
2017-11-04T04:46:26.181Z,100738
2017-11-04T04:48:52.384Z,100738
2017-11-04T04:51:18.569Z,100741
2017-11-04T04:53:44.768Z,100738
2017-11-04T04:56:10.997Z,100742
2017-11-04T04:58:37.173Z,100740
2017-11-04T05:01:04.400Z,100737
2017-11-04T05:03:30.893Z,100738
2017-11-04T05:05:57.069Z,100736
2017-11-04T05:08:23.256Z,100735
2017-11-04T05:10:49.456Z,100738
2017-11-04T05:13:15.644Z,100734
2017-11-04T05:15:41.841Z,100734
2017-11-04T05:18:08.076Z,100730
2017-11-04T05:20:34.268Z,100733
2017-11-04T05:23:00.444Z,100731
2017-11-04T05:25:26.657Z,100726
2017-11-04T05:27:53.724Z,100721
2017-11-04T05:30:19.912Z,100720
2017-11-04T05:32:46.106Z,100719
2017-11-04T05:35:13.037Z,100713
2017-11-04T05:37:39.559Z,100713
2017-11-04T05:40:05.760Z,100713
2017-11-04T05:42:31.957Z,100718
2017-11-04T05:44:58.880Z,100717
2017-11-04T05:47:25.810Z,100716
2017-11-04T05:49:52.747Z,100714
2017-11-04T05:52:19.058Z,100715
2017-11-04T05:54:45.256Z,100717
2017-11-04T05:57:11.450Z,100721
2017-11-04T05:59:38.413Z,100717
2017-11-04T06:02:05.341Z,100715
2017-11-04T06:04:31.551Z,100723
2017-11-04T06:06:57.769Z,100720
2017-11-04T06:09:23.961Z,100721
2017-11-04T06:11:50.155Z,100717
2017-11-04T06:14:17.090Z,100715
2017-11-04T06:16:43.294Z,100718
2017-11-04T06:19:10.213Z,100712
2017-11-04T06:21:36.421Z,100714
2017-11-04T06:24:02.668Z,100713
2017-11-04T06:26:28.859Z,100717
2017-11-04T06:28:55.893Z,100722
2017-11-04T06:31:22.932Z,100720
2017-11-04T06:33:49.119Z,100718
2017-11-04T06:36:15.299Z,100722
2017-11-04T06:38:42.241Z,100721
2017-11-04T06:41:09.164Z,100720
2017-11-04T06:43:35.345Z,100720
2017-11-04T06:46:01.531Z,100720
2017-11-04T06:48:27.972Z,100715
2017-11-04T06:50:54.142Z,100721
2017-11-04T06:53:20.340Z,100724
2017-11-04T06:55:47.293Z,100726
2017-11-04T06:58:13.472Z,100725
2017-11-04T07:00:39.657Z,100722
2017-11-04T07:03:05.872Z,100718
2017-11-04T07:05:32.090Z,100720
2017-11-04T07:07:59.005Z,100714
2017-11-04T07:10:25.223Z,100709
2017-11-04T07:12:51.393Z,100705
2017-11-04T07:15:18.342Z,100702
2017-11-04T07:17:44.549Z,100705
2017-11-04T07:20:10.742Z,100702
2017-11-04T07:22:37.119Z,100701
2017-11-04T07:25:03.880Z,100700
2017-11-04T07:27:30.098Z,100705
2017-11-04T07:29:56.278Z,100710
2017-11-04T07:32:22.487Z,100703
2017-11-04T07:34:48.679Z,100704
2017-11-04T07:37:14.881Z,100701
2017-11-04T07:39:41.852Z,100700
2017-11-04T07:42:08.064Z,100701
2017-11-04T07:44:34.999Z,100699
2017-11-04T07:47:01.201Z,100697
2017-11-04T07:49:27.381Z,100699
2017-11-04T07:51:53.945Z,100701
2017-11-04T07:54:20.320Z,100698
2017-11-04T07:56:46.474Z,100691
2017-11-04T07:59:13.476Z,100686
2017-11-04T08:01:41.152Z,100681
2017-11-04T08:04:08.121Z,100682
2017-11-04T08:06:35.488Z,100678
2017-11-04T08:09:01.713Z,100683
2017-11-04T08:11:27.917Z,100679
2017-11-04T08:13:54.854Z,100678
2017-11-04T08:16:21.825Z,100671
2017-11-04T08:18:48.773Z,100669
2017-11-04T08:21:14.962Z,100657
2017-11-04T08:23:41.165Z,100650
2017-11-04T08:26:07.350Z,100647
2017-11-04T08:28:33.548Z,100646
2017-11-04T08:30:59.833Z,100647
2017-11-04T08:33:26.007Z,100648
2017-11-04T08:35:52.188Z,100643
2017-11-04T08:38:18.392Z,100643
2017-11-04T08:40:44.735Z,100639
2017-11-04T08:43:10.937Z,100640
2017-11-04T08:45:37.938Z,100635
2017-11-04T08:48:04.173Z,100632
2017-11-04T08:50:30.406Z,100627
2017-11-04T08:52:56.925Z,100632
2017-11-04T08:55:23.141Z,100631
2017-11-04T08:57:49.364Z,100630
2017-11-04T09:00:15.573Z,100624
2017-11-04T09:02:41.759Z,100622
2017-11-04T09:05:07.972Z,100625
2017-11-04T09:07:34.165Z,100613
2017-11-04T09:10:00.365Z,100621
2017-11-04T09:12:27.301Z,100620
2017-11-04T09:14:54.216Z,100618
2017-11-04T09:17:20.430Z,100616
2017-11-04T09:19:46.602Z,100621
2017-11-04T09:22:13.521Z,100607
2017-11-04T09:24:40.117Z,100600
2017-11-04T09:27:06.347Z,100593
2017-11-04T09:29:32.556Z,100591
2017-11-04T09:31:58.760Z,100592
2017-11-04T09:34:24.963Z,100593
2017-11-04T09:36:51.150Z,100586
2017-11-04T09:39:17.456Z,100580
2017-11-04T09:41:44.401Z,100589
2017-11-04T09:44:11.371Z,100579
2017-11-04T09:46:37.595Z,100580
2017-11-04T09:49:03.809Z,100566
2017-11-04T09:51:30.761Z,100574
2017-11-04T09:53:57.002Z,100571
2017-11-04T09:56:23.209Z,100563
2017-11-04T09:58:50.165Z,100554
2017-11-04T10:01:16.369Z,100559
2017-11-04T10:03:43.293Z,100558
2017-11-04T10:06:09.498Z,100555
2017-11-04T10:08:36.621Z,100554
2017-11-04T10:11:02.843Z,100552
2017-11-04T10:13:29.060Z,100535
2017-11-04T10:15:55.305Z,100536
2017-11-04T10:18:21.517Z,100530
2017-11-04T10:20:47.810Z,100526
2017-11-04T10:23:15.277Z,100524
2017-11-04T10:25:42.266Z,100527
2017-11-04T10:28:08.481Z,100524
2017-11-04T10:30:34.679Z,100517
2017-11-04T10:33:00.861Z,100513
2017-11-04T10:35:27.386Z,100506
2017-11-04T10:37:53.609Z,100508
2017-11-04T10:40:19.821Z,100507
2017-11-04T10:42:46.045Z,100501
2017-11-04T10:45:12.967Z,100486
2017-11-04T10:47:39.172Z,100488
2017-11-04T10:50:05.364Z,100484
2017-11-04T10:52:31.541Z,100484
2017-11-04T10:54:57.717Z,100480
2017-11-04T10:57:23.958Z,100474
2017-11-04T10:59:50.916Z,100464
2017-11-04T11:02:17.096Z,100459
2017-11-04T11:04:44.295Z,100453
2017-11-04T11:07:10.500Z,100448
2017-11-04T11:09:36.698Z,100442
2017-11-04T11:12:03.676Z,100441
2017-11-04T11:14:29.862Z,100431
2017-11-04T11:16:56.788Z,100430
2017-11-04T11:19:23.335Z,100434
2017-11-04T11:21:50.261Z,100430
2017-11-04T11:24:16.445Z,100435
2017-11-04T11:26:42.636Z,100427
2017-11-04T11:29:09.564Z,100429
2017-11-04T11:31:35.746Z,100420
2017-11-04T11:34:01.941Z,100415
2017-11-04T11:36:28.873Z,100408
2017-11-04T11:38:55.051Z,100404
2017-11-04T11:41:21.245Z,100409
2017-11-04T11:43:48.152Z,100398
2017-11-04T11:46:14.338Z,100389
2017-11-04T11:48:40.572Z,100392
2017-11-04T11:51:06.761Z,100391
2017-11-04T11:53:33.697Z,100400
2017-11-04T11:56:00.176Z,100398
2017-11-04T11:58:26.345Z,100394
2017-11-04T12:00:52.575Z,100392
2017-11-04T12:03:19.058Z,100389
2017-11-04T12:05:45.236Z,100387
2017-11-04T12:08:11.427Z,100378
2017-11-04T12:10:37.659Z,100377
2017-11-04T12:13:03.898Z,100364
2017-11-04T12:15:30.847Z,100366
2017-11-04T12:17:57.136Z,100354
2017-11-04T12:20:23.314Z,100352
2017-11-04T12:22:49.525Z,100344
2017-11-04T12:25:15.724Z,100342
2017-11-04T12:27:41.900Z,100339
2017-11-04T12:30:08.109Z,100335
2017-11-04T12:32:34.289Z,100326
2017-11-04T12:35:01.221Z,100322
2017-11-04T12:37:28.152Z,100320
2017-11-04T12:39:54.525Z,100315
2017-11-04T12:42:20.701Z,100313
2017-11-04T12:44:47.058Z,100314
2017-11-04T12:47:13.984Z,100312
2017-11-04T12:49:40.172Z,100308
2017-11-04T12:52:06.686Z,100305
2017-11-04T12:54:33.000Z,100302
2017-11-04T12:56:59.194Z,100306
2017-11-04T12:59:25.371Z,100300
2017-11-04T13:01:51.549Z,100298
2017-11-04T13:04:17.752Z,100298
2017-11-04T13:06:43.916Z,100281
2017-11-04T13:09:10.092Z,100272
2017-11-04T13:11:36.290Z,100269
2017-11-04T13:14:03.228Z,100263
2017-11-04T13:16:30.144Z,100267
2017-11-04T13:18:56.329Z,100259
2017-11-04T13:21:22.497Z,100259
2017-11-04T13:23:48.686Z,100266
2017-11-04T13:26:14.865Z,100260
2017-11-04T13:28:41.058Z,100259
2017-11-04T13:31:07.269Z,100263
2017-11-04T13:33:33.423Z,100259
2017-11-04T13:35:59.579Z,100265
2017-11-04T13:38:26.527Z,100260
2017-11-04T13:40:53.448Z,100256
2017-11-04T13:43:19.636Z,100257
2017-11-04T13:45:45.861Z,100257
2017-11-04T13:48:12.035Z,100254
2017-11-04T13:50:38.196Z,100243
2017-11-04T13:53:04.420Z,100239
2017-11-04T13:55:30.613Z,100244
2017-11-04T13:57:56.812Z,100243
2017-11-04T14:00:23.148Z,100237
2017-11-04T14:02:49.575Z,100237
2017-11-04T14:05:15.766Z,100230
2017-11-04T14:07:42.733Z,100231
2017-11-04T14:10:08.917Z,100232
2017-11-04T14:12:35.853Z,100230
2017-11-04T14:15:02.077Z,100230
2017-11-04T14:17:28.265Z,100225
2017-11-04T14:19:54.460Z,100226
2017-11-04T14:22:20.936Z,100224
2017-11-04T14:24:47.114Z,100223
2017-11-04T14:27:14.031Z,100225
2017-11-04T14:29:40.235Z,100218
2017-11-04T14:32:06.407Z,100221
2017-11-04T14:34:33.322Z,100219
2017-11-04T14:36:59.532Z,100213
2017-11-04T14:39:25.702Z,100208
2017-11-04T14:41:52.653Z,100208
2017-11-04T14:44:18.908Z,100206
2017-11-04T14:46:45.078Z,100200
2017-11-04T14:49:11.282Z,100194
2017-11-04T14:51:37.472Z,100199
2017-11-04T14:54:03.658Z,100193
2017-11-04T14:56:29.832Z,100199
2017-11-04T14:58:56.054Z,100203
2017-11-04T15:01:22.249Z,100189
2017-11-04T15:03:48.481Z,100187
2017-11-04T15:06:14.689Z,100186
2017-11-04T15:08:40.870Z,100184
2017-11-04T15:11:07.050Z,100184
2017-11-04T15:13:33.253Z,100184
2017-11-04T15:15:59.505Z,100185
2017-11-04T15:18:25.696Z,100183
2017-11-04T15:20:52.223Z,100177
2017-11-04T15:23:18.423Z,100170
2017-11-04T15:25:45.368Z,100173
2017-11-04T15:28:12.308Z,100170
2017-11-04T15:30:39.228Z,100179
2017-11-04T15:33:05.399Z,100175
2017-11-04T15:35:31.626Z,100173
2017-11-04T15:37:57.813Z,100159
2017-11-04T15:40:23.995Z,100145
2017-11-04T15:42:51.049Z,100148
2017-11-04T15:45:17.234Z,100149
2017-11-04T15:47:44.149Z,100140
2017-11-04T15:50:10.365Z,100146
2017-11-04T15:52:36.548Z,100146
2017-11-04T15:55:03.473Z,100132
2017-11-04T15:57:30.659Z,100118
2017-11-04T15:59:56.846Z,100124
2017-11-04T16:02:23.036Z,100132
2017-11-04T16:04:49.344Z,100122
2017-11-04T16:07:15.535Z,100125
2017-11-04T16:09:42.463Z,100119
2017-11-04T16:12:08.665Z,100118
2017-11-04T16:14:34.837Z,100109
2017-11-04T16:17:01.766Z,100114
2017-11-04T16:19:28.352Z,100112
2017-11-04T16:21:54.516Z,100107
2017-11-04T16:24:20.726Z,100099
2017-11-04T16:26:46.921Z,100093
2017-11-04T16:29:13.102Z,100091
2017-11-04T16:31:40.016Z,100087
2017-11-04T16:34:06.236Z,100087
2017-11-04T16:36:32.396Z,100087
2017-11-04T16:38:58.580Z,100085
2017-11-04T16:41:25.108Z,100092
2017-11-04T16:43:51.291Z,100101
2017-11-04T16:46:17.493Z,100098
2017-11-04T16:48:43.802Z,100106
2017-11-04T16:51:09.975Z,100114
2017-11-04T16:53:36.468Z,100119
2017-11-04T16:56:02.988Z,100123
2017-11-04T16:58:29.183Z,100127
2017-11-04T17:00:55.378Z,100118
2017-11-04T17:03:21.588Z,100118
2017-11-04T17:05:47.765Z,100115
2017-11-04T17:08:13.947Z,100112
2017-11-04T17:10:40.149Z,100119
2017-11-04T17:13:06.334Z,100105
2017-11-04T17:15:32.526Z,100114
2017-11-04T17:17:58.722Z,100106
2017-11-04T17:20:24.914Z,100101
2017-11-04T17:22:51.102Z,100104
2017-11-04T17:25:17.289Z,100102
2017-11-04T17:27:44.213Z,100099
2017-11-04T17:30:10.455Z,100099
2017-11-04T17:32:36.644Z,100091
2017-11-04T17:35:02.857Z,100097
2017-11-04T17:37:29.065Z,100098
2017-11-04T17:39:55.236Z,100095
2017-11-04T17:42:21.414Z,100097
2017-11-04T17:44:47.707Z,100091
2017-11-04T17:47:13.900Z,100090
2017-11-04T17:49:40.077Z,100091
2017-11-04T17:52:07.009Z,100088
2017-11-04T17:54:33.196Z,100085
2017-11-04T17:56:59.434Z,100078
2017-11-04T17:59:25.641Z,100080
2017-11-04T18:01:51.830Z,100074
2017-11-04T18:04:18.784Z,100072
2017-11-04T18:06:45.733Z,100064
2017-11-04T18:09:12.668Z,100063
2017-11-04T18:11:39.956Z,100062
2017-11-04T18:14:06.128Z,100063
2017-11-04T18:16:32.305Z,100061
2017-11-04T18:18:58.520Z,100049
2017-11-04T18:21:24.711Z,100047
2017-11-04T18:23:50.905Z,100058
2017-11-04T18:26:17.101Z,100055
2017-11-04T18:28:43.301Z,100056
2017-11-04T18:31:09.478Z,100051
2017-11-04T18:33:35.680Z,100053
2017-11-04T18:36:01.876Z,100041
2017-11-04T18:38:28.050Z,100042
2017-11-04T18:40:54.268Z,100033
2017-11-04T18:43:20.441Z,100031
2017-11-04T18:45:46.644Z,100041
2017-11-04T18:48:12.944Z,100034
2017-11-04T18:50:39.125Z,100037
2017-11-04T18:53:05.312Z,100034
2017-11-04T18:55:31.542Z,100030
2017-11-04T18:57:57.737Z,100030
2017-11-04T19:00:24.678Z,100030
2017-11-04T19:02:51.972Z,100028
2017-11-04T19:05:18.152Z,100025
2017-11-04T19:07:44.346Z,100023
2017-11-04T19:10:10.785Z,100026
2017-11-04T19:12:36.980Z,100028
2017-11-04T19:15:03.190Z,100020
2017-11-04T19:17:29.389Z,100017
2017-11-04T19:19:55.571Z,100016
2017-11-04T19:22:21.994Z,100016
2017-11-04T19:24:48.173Z,100016
2017-11-04T19:27:14.359Z,100007
2017-11-04T19:29:40.669Z,100014
2017-11-04T19:32:06.844Z,100010
2017-11-04T19:34:33.034Z,100011
2017-11-04T19:36:59.275Z,100011
2017-11-04T19:39:25.448Z,100010
2017-11-04T19:41:51.676Z,100012
2017-11-04T19:44:18.602Z,100005
2017-11-04T19:46:44.773Z,99994
2017-11-04T19:49:10.972Z,100002
2017-11-04T19:51:38.691Z,99990
2017-11-04T19:54:04.940Z,99992
2017-11-04T19:56:31.873Z,99988
2017-11-04T19:58:58.057Z,99984
2017-11-04T20:01:24.237Z,99983
2017-11-04T20:03:50.434Z,99981
2017-11-04T20:06:16.620Z,99981
2017-11-04T20:08:43.539Z,99976
2017-11-04T20:11:09.935Z,99980
2017-11-04T20:13:36.107Z,99976
2017-11-04T20:16:02.317Z,99969
2017-11-04T20:18:28.549Z,99970
2017-11-04T20:20:54.741Z,99970
2017-11-04T20:23:20.924Z,99969
2017-11-04T20:25:47.117Z,99968
2017-11-04T20:28:13.308Z,99972
2017-11-04T20:30:39.501Z,99962
2017-11-04T20:33:05.724Z,99966
2017-11-04T20:35:31.902Z,99958
2017-11-04T20:37:58.083Z,99958
2017-11-04T20:40:24.281Z,99957
2017-11-04T20:42:50.461Z,99964
2017-11-04T20:45:17.391Z,99960
2017-11-04T20:47:43.861Z,99960
2017-11-04T20:50:10.037Z,99960
2017-11-04T20:52:36.217Z,99952
2017-11-04T20:55:02.450Z,99949
2017-11-04T20:57:28.638Z,99942
2017-11-04T20:59:55.576Z,99933
2017-11-04T21:02:21.765Z,99936
2017-11-04T21:04:47.941Z,99936
2017-11-04T21:07:15.136Z,99934
2017-11-04T21:09:41.385Z,99930
2017-11-04T21:12:07.592Z,99928
2017-11-04T21:14:35.452Z,99921
2017-11-04T21:17:01.637Z,99927
2017-11-04T21:19:28.560Z,99923
2017-11-04T21:21:54.773Z,99919
2017-11-04T21:24:20.993Z,99919
2017-11-04T21:26:47.167Z,99920
2017-11-04T21:29:14.095Z,99914
2017-11-04T21:31:40.275Z,99918
2017-11-04T21:34:06.458Z,99908
2017-11-04T21:36:33.425Z,99907
2017-11-04T21:38:59.612Z,99904
2017-11-04T21:41:25.782Z,99901
2017-11-04T21:43:51.980Z,99903
2017-11-04T21:46:18.144Z,99894
2017-11-04T21:48:44.318Z,99898
2017-11-04T21:51:10.522Z,99894
2017-11-04T21:53:36.696Z,99885
2017-11-04T21:56:03.638Z,99897
2017-11-04T21:58:30.568Z,99889
2017-11-04T22:00:56.862Z,99888
2017-11-04T22:03:23.380Z,99891
2017-11-04T22:05:49.569Z,99892
2017-11-04T22:08:16.490Z,99898
2017-11-04T22:10:42.676Z,99895
2017-11-04T22:13:08.857Z,99896
2017-11-04T22:15:35.058Z,99891
2017-11-04T22:18:01.250Z,99891
2017-11-04T22:20:27.432Z,99892
2017-11-04T22:22:53.621Z,99892
2017-11-04T22:25:19.796Z,99898
2017-11-04T22:27:45.962Z,99903
2017-11-04T22:30:12.502Z,99895
2017-11-04T22:32:38.676Z,99899
2017-11-04T22:35:04.869Z,99893
2017-11-04T22:37:32.109Z,99900
2017-11-04T22:39:58.294Z,99900
2017-11-04T22:42:25.260Z,99905
2017-11-04T22:44:51.462Z,99905
2017-11-04T22:47:17.656Z,99909
2017-11-04T22:49:43.841Z,99905
2017-11-04T22:52:10.760Z,99905
2017-11-04T22:54:36.973Z,99906
2017-11-04T22:57:03.184Z,99908
2017-11-04T22:59:29.795Z,99908
2017-11-04T23:01:55.980Z,99903
2017-11-04T23:04:22.145Z,99903
2017-11-04T23:06:48.677Z,99903
2017-11-04T23:09:14.869Z,99903
2017-11-04T23:11:41.060Z,99901
2017-11-04T23:14:08.321Z,99899
2017-11-04T23:16:34.500Z,99897
2017-11-04T23:19:01.408Z,99899
2017-11-04T23:21:27.625Z,99895
2017-11-04T23:23:53.807Z,99902
2017-11-04T23:26:19.973Z,99901
2017-11-04T23:28:46.338Z,99899
2017-11-04T23:31:13.263Z,99900
2017-11-04T23:33:39.451Z,99895
2017-11-04T23:36:05.976Z,99891
2017-11-04T23:38:32.168Z,99893
2017-11-04T23:40:59.101Z,99889
2017-11-04T23:43:25.683Z,99898
2017-11-04T23:45:51.860Z,99893
2017-11-04T23:48:18.093Z,99893
2017-11-04T23:50:44.451Z,99906
2017-11-04T23:53:11.362Z,99894
2017-11-04T23:55:37.558Z,99901
2017-11-04T23:58:03.784Z,99888
